Time;durP1;ratioP1;P1;durP2;ratioP2;P2;SDS_P1;SDS_P2;PMS_P1;PMS_P2;Temp;Humidity;BMP_temperature;BMP_pressure;BME280_temperature;BME280_humidity;BME280_pressure;Samples;Min_cycle;Max_cycle;Signal;HPM_P1;HPM_P2
2023/12/10 00:01:10;;;;;;;6.38;1.70;;;6.80;98.90;;;;;;4933670;29;20232;-50
2023/12/10 00:03:42;;;;;;;6.07;2.30;;;6.80;98.80;;;;;;4928605;29;20221;-44
2023/12/10 00:06:10;;;;;;;7.90;2.10;;;6.80;98.80;;;;;;4930952;29;20207;-45
2023/12/10 00:08:41;;;;;;;5.35;2.30;;;6.80;98.90;;;;;;4933273;29;20226;-45
2023/12/10 00:11:09;;;;;;;4.97;2.63;;;6.80;98.90;;;;;;4928029;29;20202;-45
2023/12/10 00:13:38;;;;;;;8.23;2.30;;;6.80;98.80;;;;;;4925579;29;20225;-46
2023/12/10 00:16:06;;;;;;;7.85;2.53;;;6.80;98.80;;;;;;4933417;29;20213;-44
2023/12/10 00:18:34;;;;;;;8.55;2.20;;;6.80;98.90;;;;;;4926855;29;20224;-46
2023/12/10 00:21:04;;;;;;;9.15;2.30;;;6.80;98.90;;;;;;4931675;29;20194;-44
2023/12/10 00:23:34;;;;;;;8.48;1.77;;;6.80;98.90;;;;;;4926603;29;20237;-44
2023/12/10 00:26:02;;;;;;;5.43;2.20;;;6.80;98.90;;;;;;4933044;29;20216;-50
2023/12/10 00:28:30;;;;;;;5.20;2.20;;;6.80;98.80;;;;;;4932254;29;20769;-44
2023/12/10 00:30:58;;;;;;;8.48;3.38;;;6.80;98.80;;;;;;4929819;29;20575;-46
2023/12/10 00:33:26;;;;;;;8.95;2.80;;;6.80;98.90;;;;;;4928097;29;20235;-44
2023/12/10 00:35:54;;;;;;;6.50;2.75;;;6.80;98.90;;;;;;4933845;29;20202;-47
2023/12/10 00:38:24;;;;;;;4.93;2.13;;;6.80;98.90;;;;;;4928635;29;20304;-45
2023/12/10 00:40:52;;;;;;;5.00;2.28;;;6.80;98.80;;;;;;4931354;29;20762;-45
2023/12/10 00:43:21;;;;;;;6.72;2.08;;;6.80;98.80;;;;;;4922864;29;20232;-45
2023/12/10 00:45:49;;;;;;;8.90;2.05;;;6.80;98.80;;;;;;4928362;29;20678;-44
2023/12/10 00:48:17;;;;;;;5.05;2.65;;;6.90;98.90;;;;;;4932635;29;20638;-44
2023/12/10 00:50:45;;;;;;;9.43;2.75;;;6.80;98.80;;;;;;4926480;29;20208;-46
2023/12/10 00:53:14;;;;;;;11.40;3.63;;;6.80;98.80;;;;;;4926009;29;20741;-47
2023/12/10 00:55:44;;;;;;;8.30;2.85;;;6.90;98.80;;;;;;4932999;29;20832;-46
2023/12/10 00:58:13;;;;;;;7.78;2.22;;;6.90;98.80;;;;;;4926856;29;20230;-46
2023/12/10 01:00:42;;;;;;;7.70;2.03;;;6.80;98.70;;;;;;4932818;29;20212;-45
2023/12/10 01:03:10;;;;;;;8.32;2.17;;;6.80;98.80;;;;;;4926276;29;20225;-48
2023/12/10 01:05:38;;;;;;;9.32;2.47;;;6.90;98.80;;;;;;4927184;29;20748;-46
2023/12/10 01:08:06;;;;;;;7.60;2.60;;;6.90;98.80;;;;;;4926131;29;20225;-46
2023/12/10 01:10:35;;;;;;;8.35;2.00;;;6.90;98.80;;;;;;4932480;29;20201;-45
2023/12/10 01:13:04;;;;;;;8.25;2.70;;;6.90;98.70;;;;;;4924709;29;20605;-46
2023/12/10 01:15:32;;;;;;;9.18;2.65;;;6.80;98.70;;;;;;4932252;29;20201;-45
2023/12/10 01:18:00;;;;;;;6.53;2.67;;;6.90;98.70;;;;;;4931904;29;20220;-47
2023/12/10 01:20:30;;;;;;;6.47;2.28;;;6.80;98.70;;;;;;4927288;29;20713;-44
2023/12/10 01:22:59;;;;;;;7.25;2.28;;;6.90;98.80;;;;;;4928772;29;20209;-46
2023/12/10 01:25:27;;;;;;;5.30;2.45;;;6.90;98.70;;;;;;4931836;29;20217;-46
2023/12/10 01:27:55;;;;;;;7.43;2.40;;;6.90;98.70;;;;;;4931050;29;20252;-46
2023/12/10 01:30:25;;;;;;;10.05;1.95;;;6.90;98.70;;;;;;4928541;29;20548;-48
2023/12/10 01:32:54;;;;;;;8.60;2.88;;;6.90;98.70;;;;;;4930529;29;20211;-44
2023/12/10 01:35:23;;;;;;;8.68;2.58;;;6.90;98.70;;;;;;4927713;29;20200;-47
2023/12/10 01:37:51;;;;;;;9.43;2.67;;;6.90;98.70;;;;;;4926743;29;20656;-47
2023/12/10 01:40:20;;;;;;;5.80;2.05;;;6.90;98.70;;;;;;4930777;29;20213;-45
2023/12/10 01:42:48;;;;;;;7.80;2.03;;;6.90;98.70;;;;;;4927707;29;20284;-48
2023/12/10 01:45:18;;;;;;;5.68;2.30;;;6.90;98.60;;;;;;4929926;29;20206;-47
2023/12/10 01:47:51;;;;;;;10.05;4.40;;;6.90;98.60;;;;;;4932533;29;20591;-47
2023/12/10 01:50:20;;;;;;;4.85;2.03;;;6.90;98.60;;;;;;4927737;29;20213;-45
2023/12/10 01:52:49;;;;;;;6.38;2.42;;;6.90;98.60;;;;;;4928988;29;20607;-45
2023/12/10 01:55:18;;;;;;;7.43;2.20;;;6.90;98.60;;;;;;4929763;29;20212;-45
2023/12/10 01:57:46;;;;;;;6.03;2.55;;;6.90;98.60;;;;;;4928606;29;20635;-44
2023/12/10 02:00:15;;;;;;;12.68;2.50;;;6.90;98.50;;;;;;4931196;29;20252;-45
2023/12/10 02:02:44;;;;;;;8.98;2.03;;;6.90;98.60;;;;;;4927391;29;20213;-46
2023/12/10 02:05:14;;;;;;;10.40;2.35;;;6.90;98.60;;;;;;4926932;29;20659;-46
2023/12/10 02:07:43;;;;;;;9.65;2.30;;;6.90;98.60;;;;;;4930041;29;20292;-47
2023/12/10 02:10:12;;;;;;;7.43;2.00;;;6.90;98.50;;;;;;4929183;29;20268;-45
2023/12/10 02:12:41;;;;;;;8.25;2.22;;;6.90;98.60;;;;;;4926726;29;20229;-45
2023/12/10 02:15:17;;;;;;;6.10;2.33;;;6.90;98.50;;;;;;4929196;29;20227;-45
2023/12/10 02:17:48;;;;;;;7.35;2.17;;;6.90;98.60;;;;;;4930131;29;20200;-47
2023/12/10 02:20:18;;;;;;;10.80;2.25;;;6.90;98.50;;;;;;4927742;29;20690;-45
2023/12/10 02:23:03;;;;;;;6.47;2.78;;;6.90;98.50;;;;;;4924733;29;20212;-44
2023/12/10 02:25:34;;;;;;;7.90;2.28;;;6.90;98.50;;;;;;4929827;29;20229;-44
2023/12/10 02:28:03;;;;;;;8.80;4.05;;;6.90;98.40;;;;;;4928004;29;20221;-44
2023/12/10 02:30:31;;;;;;;10.32;2.15;;;6.90;98.50;;;;;;4924762;29;20193;-43
2023/12/10 02:32:59;;;;;;;5.93;1.95;;;6.90;98.50;;;;;;4930520;29;20197;-45
2023/12/10 02:35:28;;;;;;;7.18;2.65;;;6.90;98.50;;;;;;4926585;29;20226;-47
2023/12/10 02:37:56;;;;;;;9.65;2.30;;;7.00;98.50;;;;;;4931559;29;20215;-45
2023/12/10 02:40:25;;;;;;;8.63;2.65;;;6.90;98.50;;;;;;4931369;29;20217;-46
2023/12/10 02:42:56;;;;;;;11.02;3.35;;;6.90;98.50;;;;;;4925907;29;20277;-43
2023/12/10 02:45:25;;;;;;;7.88;2.20;;;6.90;98.40;;;;;;4924932;29;20254;-45
2023/12/10 02:47:54;;;;;;;5.88;1.75;;;6.90;98.40;;;;;;4929554;29;20222;-47
2023/12/10 02:50:22;;;;;;;7.93;2.35;;;6.90;98.30;;;;;;4926927;29;20305;-46
2023/12/10 02:52:50;;;;;;;5.13;1.95;;;6.90;98.30;;;;;;4923454;29;20201;-47
2023/12/10 02:55:18;;;;;;;4.60;1.77;;;6.90;98.40;;;;;;4930857;29;20213;-46
2023/12/10 02:57:46;;;;;;;6.97;1.70;;;6.90;98.30;;;;;;4921581;29;20205;-45
2023/12/10 03:00:16;;;;;;;4.75;2.55;;;7.00;98.50;;;;;;4929284;29;20227;-45
2023/12/10 03:02:44;;;;;;;6.45;2.03;;;7.00;98.40;;;;;;4927410;29;20277;-46
2023/12/10 03:05:13;;;;;;;6.78;2.03;;;6.90;98.30;;;;;;4925159;29;20233;-45
2023/12/10 03:07:41;;;;;;;5.80;1.95;;;6.90;98.30;;;;;;4928272;29;20661;-45
2023/12/10 03:10:09;;;;;;;5.75;2.40;;;6.90;98.40;;;;;;4931640;29;20226;-44
2023/12/10 03:12:37;;;;;;;6.53;2.50;;;7.00;98.50;;;;;;4928266;29;20208;-46
2023/12/10 03:15:06;;;;;;;4.80;2.35;;;6.90;98.30;;;;;;4931501;29;20259;-44
2023/12/10 03:17:35;;;;;;;7.32;2.10;;;7.00;98.40;;;;;;4929353;29;20220;-48
2023/12/10 03:20:05;;;;;;;9.80;1.83;;;7.00;98.50;;;;;;4929442;29;20802;-46
2023/12/10 03:22:33;;;;;;;8.70;2.78;;;7.00;98.40;;;;;;4928933;29;20233;-45
2023/12/10 03:25:02;;;;;;;8.15;2.53;;;6.90;98.40;;;;;;4928463;29;20247;-45
2023/12/10 03:27:30;;;;;;;9.40;2.00;;;7.00;98.40;;;;;;4930857;29;20687;-43
2023/12/10 03:29:58;;;;;;;6.28;1.60;;;7.00;98.30;;;;;;4934245;29;20246;-43
2023/12/10 03:32:26;;;;;;;5.32;2.60;;;7.00;98.30;;;;;;4933375;29;20188;-44
2023/12/10 03:34:56;;;;;;;6.68;1.98;;;7.00;98.40;;;;;;4929642;29;20226;-49
2023/12/10 03:37:24;;;;;;;6.60;1.88;;;7.00;98.40;;;;;;4934347;29;20204;-45
2023/12/10 03:39:52;;;;;;;6.93;2.13;;;7.00;98.30;;;;;;4933954;29;20254;-44
2023/12/10 03:42:20;;;;;;;4.57;2.15;;;7.00;98.30;;;;;;4930631;29;20224;-45
2023/12/10 03:44:49;;;;;;;7.00;2.65;;;7.00;98.40;;;;;;4931746;29;20221;-47
2023/12/10 03:47:17;;;;;;;7.38;3.05;;;6.90;98.30;;;;;;4932256;29;20261;-47
2023/12/10 03:49:45;;;;;;;4.55;1.70;;;7.00;98.40;;;;;;4931449;29;20280;-47
2023/12/10 03:52:14;;;;;;;9.75;2.35;;;7.00;98.30;;;;;;4929270;29;20198;-45
2023/12/10 03:54:42;;;;;;;5.03;2.00;;;7.00;98.40;;;;;;4933731;29;20404;-45
2023/12/10 03:57:11;;;;;;;6.35;2.50;;;7.00;98.30;;;;;;4930537;29;20249;-45
2023/12/10 03:59:39;;;;;;;10.40;2.85;;;7.00;98.30;;;;;;4926744;29;20244;-45
2023/12/10 04:02:07;;;;;;;8.02;2.60;;;7.00;98.40;;;;;;4931595;29;20215;-44
2023/12/10 04:04:35;;;;;;;7.40;2.50;;;7.00;98.40;;;;;;4931743;29;20218;-44
2023/12/10 04:07:03;;;;;;;5.07;2.13;;;7.00;98.40;;;;;;4927949;29;20704;-44
2023/12/10 04:09:32;;;;;;;9.32;2.10;;;7.00;98.30;;;;;;4932563;28;20254;-45
2023/12/10 04:12:01;;;;;;;4.80;1.30;;;7.00;98.40;;;;;;4930891;29;20257;-44
2023/12/10 04:14:29;;;;;;;7.50;2.55;;;7.00;98.40;;;;;;4932873;29;20277;-44
2023/12/10 04:16:57;;;;;;;6.95;2.15;;;7.00;98.40;;;;;;4932204;29;20209;-44
2023/12/10 04:19:25;;;;;;;9.20;2.08;;;7.00;98.30;;;;;;4927456;29;20717;-46
2023/12/10 04:21:53;;;;;;;11.52;2.67;;;7.00;98.40;;;;;;4928267;29;20593;-47
2023/12/10 04:24:22;;;;;;;5.68;1.90;;;7.00;98.40;;;;;;4933202;29;20238;-45
2023/12/10 04:26:51;;;;;;;6.50;2.88;;;7.00;98.30;;;;;;4925391;29;20659;-45
2023/12/10 04:29:19;;;;;;;5.82;2.47;;;7.00;98.30;;;;;;4932968;29;20221;-44
2023/12/10 04:31:47;;;;;;;8.75;2.38;;;7.00;98.30;;;;;;4932755;29;20204;-45
2023/12/10 04:34:15;;;;;;;8.45;2.35;;;7.00;98.30;;;;;;4932617;29;20234;-46
2023/12/10 04:36:43;;;;;;;7.53;1.92;;;7.00;98.40;;;;;;4933051;29;20394;-44
2023/12/10 04:39:15;;;;;;;7.90;2.22;;;7.00;98.30;;;;;;4932719;29;20278;-45
2023/12/10 04:41:43;;;;;;;8.52;2.88;;;7.00;98.30;;;;;;4929660;29;20316;-43
2023/12/10 04:44:13;;;;;;;11.85;3.03;;;7.00;98.40;;;;;;4931493;29;20712;-47
2023/12/10 04:46:41;;;;;;;7.93;2.35;;;7.00;98.30;;;;;;4933420;29;20258;-45
2023/12/10 04:49:09;;;;;;;9.65;2.35;;;7.00;98.30;;;;;;4926992;29;20314;-45
2023/12/10 04:51:38;;;;;;;6.03;2.17;;;7.00;98.30;;;;;;4926097;29;20283;-46
2023/12/10 04:54:08;;;;;;;11.63;2.88;;;7.00;98.30;;;;;;4932482;29;20220;-45
2023/12/10 04:56:36;;;;;;;5.22;2.15;;;7.00;98.30;;;;;;4928284;29;20206;-45
2023/12/10 04:59:04;;;;;;;10.88;3.65;;;7.00;98.30;;;;;;4932629;29;20233;-45
2023/12/10 05:01:34;;;;;;;8.25;2.05;;;7.00;98.20;;;;;;4927797;29;20231;-46
2023/12/10 05:04:02;;;;;;;8.55;3.25;;;7.00;98.10;;;;;;4931105;29;20606;-44
2023/12/10 05:06:32;;;;;;;8.05;2.70;;;7.00;98.20;;;;;;4930137;29;20213;-45
2023/12/10 05:09:03;;;;;;;10.35;2.95;;;7.00;98.10;;;;;;4932100;29;20232;-45
2023/12/10 05:11:31;;;;;;;5.32;2.33;;;7.00;98.10;;;;;;4929215;29;20671;-45
2023/12/10 05:14:01;;;;;;;7.90;2.60;;;7.00;98.10;;;;;;4932140;29;20222;-45
2023/12/10 05:16:29;;;;;;;7.18;2.75;;;7.00;98.20;;;;;;4930139;29;20221;-44
2023/12/10 05:18:58;;;;;;;8.23;2.47;;;7.00;98.10;;;;;;4931535;29;20232;-47
2023/12/10 05:21:27;;;;;;;5.55;2.10;;;7.10;98.20;;;;;;4929558;29;20196;-45
2023/12/10 05:23:55;;;;;;;7.55;2.70;;;7.10;98.10;;;;;;4928024;29;20712;-45
2023/12/10 05:26:23;;;;;;;6.80;2.20;;;7.10;98.10;;;;;;4927030;29;20234;-43
2023/12/10 05:28:51;;;;;;;10.77;3.03;;;7.00;98.10;;;;;;4932173;29;20221;-44
2023/12/10 05:31:18;;;;;;;8.25;3.00;;;7.10;98.10;;;;;;4931722;29;20214;-46
2023/12/10 05:33:46;;;;;;;8.98;2.35;;;7.10;98.00;;;;;;4931327;29;20237;-45
2023/12/10 05:36:16;;;;;;;7.88;2.65;;;7.00;98.10;;;;;;4929076;29;20230;-44
2023/12/10 05:38:44;;;;;;;10.30;2.47;;;7.10;98.10;;;;;;4926117;29;20359;-44
2023/12/10 05:41:12;;;;;;;9.30;2.35;;;7.10;98.00;;;;;;4929916;29;20722;-47
2023/12/10 05:43:40;;;;;;;8.55;2.30;;;7.00;98.00;;;;;;4927817;29;20229;-45
2023/12/10 05:46:09;;;;;;;6.80;1.92;;;7.10;98.10;;;;;;4926934;29;20252;-45
2023/12/10 05:48:37;;;;;;;4.50;1.90;;;7.10;98.10;;;;;;4931423;29;20767;-45
2023/12/10 05:51:06;;;;;;;10.40;2.35;;;7.00;98.00;;;;;;4926659;29;20208;-47
2023/12/10 05:53:35;;;;;;;8.60;2.47;;;7.00;98.10;;;;;;4927946;29;20767;-46
2023/12/10 05:56:03;;;;;;;8.52;2.63;;;7.00;98.10;;;;;;4928185;29;20257;-50
2023/12/10 05:58:31;;;;;;;5.65;1.90;;;7.00;98.10;;;;;;4930779;29;20237;-44
2023/12/10 06:01:01;;;;;;;6.32;2.80;;;7.10;98.00;;;;;;4930936;29;20197;-45
2023/12/10 06:03:29;;;;;;;4.85;2.65;;;7.10;98.00;;;;;;4929656;29;20233;-46
2023/12/10 06:05:57;;;;;;;8.90;2.60;;;7.00;98.10;;;;;;4928030;29;20201;-46
2023/12/10 06:08:25;;;;;;;4.13;1.73;;;7.10;98.00;;;;;;4928137;29;20248;-46
2023/12/10 06:10:55;;;;;;;11.52;2.53;;;7.10;98.00;;;;;;4922227;29;20465;-47
2023/12/10 06:13:23;;;;;;;6.75;2.25;;;7.10;98.00;;;;;;4927091;29;20252;-46
2023/12/10 06:15:52;;;;;;;8.65;2.20;;;7.10;97.90;;;;;;4926000;29;20569;-47
2023/12/10 06:18:20;;;;;;;11.25;2.72;;;7.10;98.00;;;;;;4929328;29;20320;-45
2023/12/10 06:20:48;;;;;;;5.78;1.95;;;7.10;98.00;;;;;;4926739;29;20249;-45
2023/12/10 06:23:16;;;;;;;8.27;2.17;;;7.10;97.90;;;;;;4929261;29;20725;-44
2023/12/10 06:25:45;;;;;;;7.90;2.67;;;7.10;97.90;;;;;;4928795;29;20209;-44
2023/12/10 06:28:14;;;;;;;8.38;2.58;;;7.10;97.90;;;;;;4925305;29;20251;-45
2023/12/10 06:30:42;;;;;;;8.40;3.13;;;7.10;97.90;;;;;;4931790;29;20207;-46
2023/12/10 06:33:10;;;;;;;7.57;2.30;;;7.10;97.90;;;;;;4920825;29;20259;-45
2023/12/10 06:35:39;;;;;;;8.45;2.90;;;7.10;97.90;;;;;;4928818;29;20204;-45
2023/12/10 06:38:07;;;;;;;8.38;2.30;;;7.10;97.90;;;;;;4925025;29;20220;-44
2023/12/10 06:40:35;;;;;;;12.13;2.85;;;7.10;97.90;;;;;;4931304;29;20203;-44
2023/12/10 06:43:03;;;;;;;11.40;3.13;;;7.10;97.90;;;;;;4927737;29;20213;-43
2023/12/10 06:45:33;;;;;;;6.30;2.55;;;7.10;97.90;;;;;;4934424;29;20198;-46
2023/12/10 06:48:01;;;;;;;7.03;2.65;;;7.10;97.90;;;;;;4934192;29;20645;-46
2023/12/10 06:50:30;;;;;;;6.85;2.22;;;7.10;97.90;;;;;;4928515;29;20298;-44
2023/12/10 06:52:58;;;;;;;8.90;2.72;;;7.10;97.70;;;;;;4928888;29;20199;-45
2023/12/10 06:55:27;;;;;;;6.85;2.22;;;7.10;97.80;;;;;;4924952;29;20206;-46
2023/12/10 06:57:57;;;;;;;7.57;2.58;;;7.10;97.90;;;;;;4931014;29;20226;-45
2023/12/10 07:00:26;;;;;;;9.60;2.55;;;7.10;98.00;;;;;;4933137;29;20726;-47
2023/12/10 07:02:57;;;;;;;7.88;3.15;;;7.10;97.90;;;;;;4932344;29;20209;-46
2023/12/10 07:05:25;;;;;;;9.75;2.50;;;7.10;97.90;;;;;;4932385;29;20201;-45
2023/12/10 07:07:53;;;;;;;9.25;3.03;;;7.10;97.80;;;;;;4928078;29;20224;-45
2023/12/10 07:10:21;;;;;;;5.65;2.13;;;7.10;97.90;;;;;;4931264;29;20205;-46
2023/12/10 07:12:53;;;;;;;5.57;2.10;;;7.10;97.90;;;;;;4922080;29;20724;-44
2023/12/10 07:15:21;;;;;;;15.50;1.92;;;7.10;97.90;;;;;;4932783;29;20196;-46
2023/12/10 07:17:49;;;;;;;7.03;2.22;;;7.10;97.90;;;;;;4929970;29;20614;-43
2023/12/10 07:20:24;;;;;;;6.22;1.88;;;7.10;97.90;;;;;;4934714;29;20288;-43
2023/12/10 07:22:59;;;;;;;6.57;2.33;;;7.10;97.90;;;;;;4923777;29;20210;-43
2023/12/10 07:25:28;;;;;;;9.98;2.38;;;7.10;97.90;;;;;;4931242;29;20676;-45
2023/12/10 07:27:56;;;;;;;3.75;1.77;;;7.10;97.90;;;;;;4930807;29;20220;-45
2023/12/10 07:30:24;;;;;;;8.80;2.30;;;7.10;97.80;;;;;;4933450;29;20258;-46
2023/12/10 07:32:53;;;;;;;6.47;2.63;;;7.10;97.80;;;;;;4926442;29;20745;-45
2023/12/10 07:35:24;;;;;;;5.30;2.33;;;7.10;97.90;;;;;;4926489;29;20219;-45
2023/12/10 07:37:52;;;;;;;8.75;2.95;;;7.10;98.30;;;;;;4928183;29;20236;-47
2023/12/10 07:40:22;;;;;;;6.40;2.30;;;7.10;97.70;;;;;;4933022;29;20205;-43
2023/12/10 07:42:51;;;;;;;6.97;2.80;;;7.10;97.80;;;;;;4930049;29;20292;-44
2023/12/10 07:45:19;;;;;;;5.50;2.13;;;7.10;97.80;;;;;;4931474;29;20218;-44
2023/12/10 07:47:47;;;;;;;7.10;2.30;;;7.10;97.70;;;;;;4933935;29;20297;-44
2023/12/10 07:50:16;;;;;;;7.53;2.17;;;7.10;97.70;;;;;;4930703;29;20747;-44
2023/12/10 07:52:45;;;;;;;12.05;2.70;;;7.20;97.80;;;;;;4933714;29;20289;-45
2023/12/10 07:55:16;;;;;;;9.77;2.58;;;7.10;97.80;;;;;;4931056;29;20248;-46
2023/12/10 07:57:45;;;;;;;6.97;2.47;;;7.20;97.90;;;;;;4928841;29;20205;-46
2023/12/10 08:00:14;;;;;;;5.45;1.80;;;7.10;97.70;;;;;;4933783;28;20627;-45
2023/12/10 08:02:43;;;;;;;5.53;1.83;;;7.10;97.70;;;;;;4933204;29;20204;-44
2023/12/10 08:05:11;;;;;;;8.80;2.50;;;7.10;97.70;;;;;;4932305;29;20226;-45
2023/12/10 08:07:40;;;;;;;5.25;3.15;;;7.10;97.70;;;;;;4927954;29;20201;-45
2023/12/10 08:10:10;;;;;;;6.97;2.25;;;7.20;97.80;;;;;;4931093;29;20779;-44
2023/12/10 08:12:38;;;;;;;5.32;2.10;;;7.20;97.70;;;;;;4930053;29;20202;-47
2023/12/10 08:15:09;;;;;;;10.95;2.70;;;7.10;97.70;;;;;;4928179;29;20282;-44
2023/12/10 08:20:32;;;;;;;5.82;1.88;;;7.10;97.70;;;;;;4990006;28;20756;-43
2023/12/10 08:23:00;;;;;;;5.20;1.80;;;7.10;97.70;;;;;;4988944;28;20207;-43
2023/12/10 08:25:30;;;;;;;7.25;1.80;;;7.10;97.90;;;;;;4969859;28;20249;-44
2023/12/10 08:27:59;;;;;;;5.47;1.90;;;7.10;97.90;;;;;;4971650;28;20232;-43
2023/12/10 08:30:27;;;;;;;6.85;2.40;;;7.20;97.80;;;;;;4987673;28;20700;-44
2023/12/10 08:32:55;;;;;;;7.63;1.80;;;7.20;97.70;;;;;;4980458;28;20250;-43
2023/12/10 08:35:23;;;;;;;8.77;2.70;;;7.20;97.90;;;;;;4980729;28;20496;-44
2023/12/10 08:37:52;;;;;;;10.38;2.50;;;7.20;97.70;;;;;;4978502;28;20333;-45
2023/12/10 08:40:21;;;;;;;9.98;2.17;;;7.20;97.90;;;;;;4988567;28;20251;-44
2023/12/10 08:42:51;;;;;;;5.30;1.80;;;7.20;97.90;;;;;;4974430;28;20194;-43
2023/12/10 08:45:24;;;;;;;7.80;2.40;;;7.20;97.80;;;;;;4984322;28;20269;-44
2023/12/10 08:47:53;;;;;;;10.52;2.35;;;7.20;97.80;;;;;;4970963;28;20569;-43
2023/12/10 08:50:22;;;;;;;6.63;2.38;;;7.20;97.90;;;;;;4985379;28;20199;-44
2023/12/10 08:52:50;;;;;;;10.65;3.00;;;7.20;97.90;;;;;;4981113;28;20557;-44
2023/12/10 08:55:20;;;;;;;7.72;2.42;;;7.20;97.90;;;;;;4981611;28;20571;-44
2023/12/10 08:57:48;;;;;;;6.00;2.42;;;7.20;98.00;;;;;;4984066;28;20334;-44
2023/12/10 09:00:18;;;;;;;6.50;1.83;;;7.20;97.80;;;;;;4979809;28;20645;-44
2023/12/10 09:02:46;;;;;;;4.90;2.03;;;7.20;97.90;;;;;;4988331;28;20335;-44
2023/12/10 09:05:15;;;;;;;7.25;3.20;;;7.20;97.90;;;;;;4985767;28;20379;-44
2023/12/10 09:07:43;;;;;;;14.85;2.90;;;7.20;97.80;;;;;;4988636;28;20228;-44
2023/12/10 09:10:11;;;;;;;6.38;2.17;;;7.20;97.90;;;;;;4988281;28;20223;-45
2023/12/10 09:12:41;;;;;;;8.13;2.05;;;7.20;97.70;;;;;;4982689;28;20215;-45
2023/12/10 09:15:09;;;;;;;6.45;2.35;;;7.20;97.90;;;;;;4980181;28;20271;-45
2023/12/10 09:17:39;;;;;;;7.03;3.15;;;7.40;98.10;;;;;;4987403;28;20197;-45
2023/12/10 09:20:09;;;;;;;14.15;2.60;;;7.50;97.90;;;;;;4987212;28;20280;-44
2023/12/10 09:22:37;;;;;;;9.88;2.55;;;7.50;97.80;;;;;;4969023;28;20193;-44
2023/12/10 09:25:06;;;;;;;6.90;2.13;;;7.40;97.80;;;;;;4981554;28;20345;-45
2023/12/10 09:27:34;;;;;;;8.48;3.05;;;7.40;97.80;;;;;;4977471;28;20192;-43
2023/12/10 09:30:02;;;;;;;6.03;2.42;;;7.40;97.80;;;;;;4987128;28;20641;-44
2023/12/10 09:32:30;;;;;;;8.68;2.40;;;7.40;97.80;;;;;;4977851;28;20200;-44
2023/12/10 09:35:01;;;;;;;7.88;2.85;;;7.40;97.80;;;;;;4987825;28;20223;-45
2023/12/10 09:37:29;;;;;;;6.15;1.80;;;7.40;97.80;;;;;;4975115;28;20194;-44
2023/12/10 09:39:57;;;;;;;11.02;2.70;;;7.40;97.80;;;;;;4966224;28;20232;-44
2023/12/10 09:42:26;;;;;;;8.40;2.10;;;7.30;97.70;;;;;;4980183;28;20706;-45
2023/12/10 09:44:54;;;;;;;9.77;2.85;;;7.30;97.70;;;;;;4986100;28;20423;-43
2023/12/10 09:47:26;;;;;;;6.50;2.47;;;7.30;97.70;;;;;;4985002;28;20245;-44
2023/12/10 09:49:55;;;;;;;5.95;1.60;;;7.30;97.70;;;;;;4973098;28;20649;-45
2023/12/10 09:52:24;;;;;;;6.65;2.50;;;7.30;97.70;;;;;;4981643;28;20680;-44
2023/12/10 09:54:53;;;;;;;10.07;2.22;;;7.30;97.70;;;;;;4981126;28;20800;-44
2023/12/10 09:57:22;;;;;;;6.40;2.42;;;7.30;97.70;;;;;;4982927;28;20258;-44
2023/12/10 09:59:50;;;;;;;5.35;2.25;;;7.30;97.70;;;;;;4979868;28;20222;-44
2023/12/10 10:02:18;;;;;;;8.73;2.55;;;7.30;97.70;;;;;;4977443;28;20438;-45
2023/12/10 10:04:47;;;;;;;14.25;2.53;;;7.40;98.00;;;;;;4981662;28;20226;-44
2023/12/10 10:07:16;;;;;;;8.52;2.50;;;7.40;97.80;;;;;;4968588;28;20418;-44
2023/12/10 10:09:45;;;;;;;5.65;1.92;;;7.40;97.80;;;;;;4981990;28;20230;-44
2023/12/10 10:12:14;;;;;;;8.32;2.50;;;7.40;97.80;;;;;;4983548;28;20198;-44
2023/12/10 10:14:55;;;;;;;6.90;2.53;;;7.40;97.80;;;;;;4985488;28;20357;-44
2023/12/10 10:17:30;;;;;;;8.50;2.40;;;7.40;97.80;;;;;;4979827;28;20257;-44
2023/12/10 10:20:00;;;;;;;6.18;2.60;;;7.40;97.80;;;;;;4976983;28;20219;-44
2023/12/10 10:22:28;;;;;;;5.82;2.00;;;7.40;97.80;;;;;;4990767;28;20206;-44
2023/12/10 10:24:58;;;;;;;7.43;2.67;;;7.40;97.80;;;;;;4991487;28;20315;-43
2023/12/10 10:27:27;;;;;;;10.63;2.72;;;7.30;97.80;;;;;;4974410;28;20204;-43
2023/12/10 10:29:55;;;;;;;5.57;1.77;;;7.30;97.90;;;;;;4991396;28;20287;-43
2023/12/10 10:32:24;;;;;;;4.85;2.20;;;7.30;97.80;;;;;;4983575;28;20201;-43
2023/12/10 10:34:52;;;;;;;9.77;2.53;;;7.40;97.90;;;;;;4976144;28;20266;-43
2023/12/10 10:37:20;;;;;;;8.85;2.28;;;7.30;98.00;;;;;;4978455;28;20710;-44
2023/12/10 10:39:49;;;;;;;5.85;2.38;;;7.40;98.10;;;;;;4990693;28;20230;-44
2023/12/10 10:42:19;;;;;;;7.18;2.58;;;7.40;98.00;;;;;;4985191;28;20201;-43
2023/12/10 10:44:48;;;;;;;9.63;2.60;;;7.40;98.00;;;;;;4981118;28;20222;-43
2023/12/10 10:47:18;;;;;;;8.50;2.53;;;7.40;98.00;;;;;;4982565;28;20248;-44
2023/12/10 10:49:51;;;;;;;7.93;2.05;;;7.30;97.80;;;;;;4990177;28;20231;-44
2023/12/10 10:52:40;;;;;;;3.88;1.42;;;7.30;97.90;;;;;;4982921;28;20211;-43
2023/12/10 10:55:10;;;;;;;3.50;1.50;;;7.30;98.00;;;;;;4990907;28;20252;-44
2023/12/10 10:57:40;;;;;;;9.73;2.88;;;7.40;97.80;;;;;;4979171;28;20206;-44
2023/12/10 11:00:33;;;;;;;9.02;2.35;;;7.40;98.00;;;;;;4990979;28;20216;-43
2023/12/10 11:03:03;;;;;;;6.10;2.40;;;7.40;97.80;;;;;;4979436;28;20295;-43
2023/12/10 11:05:33;;;;;;;6.75;2.35;;;7.30;97.70;;;;;;4984126;28;20211;-44
2023/12/10 11:08:03;;;;;;;4.80;2.72;;;7.30;97.80;;;;;;4984499;28;20232;-44
2023/12/10 11:10:31;;;;;;;6.07;2.22;;;7.30;97.80;;;;;;4990444;28;20205;-43
2023/12/10 11:13:01;;;;;;;4.80;1.55;;;7.40;97.80;;;;;;4986327;28;20222;-43
2023/12/10 11:15:30;;;;;;;6.57;2.53;;;7.30;98.40;;;;;;4990226;28;20618;-43
2023/12/10 11:17:59;;;;;;;6.75;2.05;;;7.30;98.00;;;;;;4984207;28;20217;-43
2023/12/10 11:20:37;;;;;;;6.90;2.38;;;7.40;97.80;;;;;;4979931;28;20210;-44
2023/12/10 11:23:06;;;;;;;5.13;2.22;;;7.40;97.80;;;;;;4979488;28;20201;-43
2023/12/10 11:25:34;;;;;;;6.40;2.30;;;7.40;97.80;;;;;;4988791;28;20214;-43
2023/12/10 11:28:10;;;;;;;5.50;1.95;;;7.40;97.80;;;;;;4973725;28;20204;-44
2023/12/10 11:30:39;;;;;;;13.50;2.88;;;7.40;97.80;;;;;;4989540;28;20221;-43
2023/12/10 11:33:08;;;;;;;2.90;1.80;;;7.40;98.10;;;;;;4988031;28;20195;-43
2023/12/10 11:35:36;;;;;;;8.18;2.25;;;7.40;97.90;;;;;;4981064;28;21510;-43
2023/12/10 11:38:05;;;;;;;5.53;1.55;;;7.40;98.00;;;;;;4984593;28;20209;-43
2023/12/10 11:40:33;;;;;;;6.97;2.25;;;7.30;97.80;;;;;;4986482;28;20198;-44
2023/12/10 11:43:07;;;;;;;6.75;1.90;;;7.40;98.00;;;;;;4985025;28;20655;-43
2023/12/10 11:45:36;;;;;;;8.68;2.38;;;7.40;97.80;;;;;;4984266;28;20219;-44
2023/12/10 11:48:08;;;;;;;8.73;2.58;;;7.40;97.90;;;;;;4983811;28;20573;-43
2023/12/10 11:50:38;;;;;;;6.20;1.98;;;7.40;98.00;;;;;;4989287;28;20663;-44
2023/12/10 11:53:07;;;;;;;7.75;1.73;;;7.40;97.90;;;;;;4984652;28;20203;-43
2023/12/10 11:55:35;;;;;;;5.22;2.05;;;7.40;98.30;;;;;;4978240;28;20191;-44
2023/12/10 11:58:03;;;;;;;5.63;2.35;;;7.40;98.00;;;;;;4979097;28;20285;-43
2023/12/10 12:00:41;;;;;;;4.57;1.70;;;7.40;98.00;;;;;;4974578;28;20198;-44
2023/12/10 12:03:10;;;;;;;5.72;1.90;;;7.40;98.00;;;;;;4989604;28;20240;-44
2023/12/10 12:05:38;;;;;;;6.63;2.20;;;7.40;98.00;;;;;;4978708;28;20194;-43
2023/12/10 12:08:06;;;;;;;9.60;2.92;;;7.40;98.00;;;;;;4979206;28;20223;-44
2023/12/10 12:10:38;;;;;;;4.28;1.92;;;7.40;98.00;;;;;;4989805;28;20203;-44
2023/12/10 12:13:08;;;;;;;6.63;2.47;;;7.40;98.00;;;;;;4984379;28;20206;-45
2023/12/10 12:15:38;;;;;;;7.55;1.90;;;7.40;98.00;;;;;;4984784;28;20194;-43
2023/12/10 12:18:06;;;;;;;8.48;2.33;;;7.40;98.00;;;;;;4984808;28;20229;-44
2023/12/10 12:20:34;;;;;;;8.45;2.25;;;7.40;98.00;;;;;;4982247;28;20192;-43
2023/12/10 12:23:02;;;;;;;7.60;2.60;;;7.40;98.00;;;;;;4990089;28;20253;-43
2023/12/10 12:25:34;;;;;;;3.80;1.75;;;7.40;98.00;;;;;;4984717;28;20202;-43
2023/12/10 12:28:02;;;;;;;8.40;3.00;;;7.40;97.90;;;;;;4979140;28;20269;-43
2023/12/10 12:30:30;;;;;;;5.90;1.80;;;7.40;97.80;;;;;;4988275;28;20282;-43
2023/12/10 12:33:00;;;;;;;5.75;2.17;;;7.40;98.00;;;;;;4990029;28;20207;-44
2023/12/10 12:35:30;;;;;;;4.25;1.85;;;7.40;98.00;;;;;;4985967;28;20203;-44
2023/12/10 12:37:58;;;;;;;5.88;2.20;;;7.40;98.00;;;;;;4962882;28;20231;-43
2023/12/10 12:40:26;;;;;;;8.20;2.47;;;7.40;98.10;;;;;;4982650;28;20560;-44
2023/12/10 12:42:54;;;;;;;5.22;1.70;;;7.40;98.00;;;;;;4983163;28;20256;-44
2023/12/10 12:45:22;;;;;;;4.15;2.08;;;7.40;98.00;;;;;;4986111;28;20196;-43
2023/12/10 12:47:51;;;;;;;6.65;2.15;;;7.40;98.00;;;;;;4969300;28;20226;-44
2023/12/10 12:50:21;;;;;;;5.50;2.40;;;7.40;98.00;;;;;;4972514;28;20221;-43
2023/12/10 12:52:50;;;;;;;4.20;2.20;;;7.40;98.00;;;;;;4968490;28;20657;-43
2023/12/10 12:55:21;;;;;;;4.97;1.95;;;7.40;98.00;;;;;;4989238;28;20314;-43
2023/12/10 12:57:49;;;;;;;6.15;1.90;;;7.40;97.90;;;;;;4968148;28;20215;-45
2023/12/10 13:00:18;;;;;;;4.68;1.55;;;7.40;98.00;;;;;;4989983;28;20271;-43
2023/12/10 13:02:46;;;;;;;6.68;1.70;;;7.40;97.80;;;;;;4981803;28;20229;-44
2023/12/10 13:05:15;;;;;;;6.03;1.90;;;7.40;97.80;;;;;;4975082;28;20225;-44
2023/12/10 13:07:45;;;;;;;5.05;1.73;;;7.40;97.90;;;;;;4981122;28;20266;-43